sensor_id;sensor_type;location;lat;lon;timestamp;P1;durP1;ratioP1;P2;durP2;ratioP2
10653;SDS011;5375;51.250;6.776;2023-08-30T00:00:20;3.38;;;1.98;;
10653;SDS011;5375;51.250;6.776;2023-08-30T00:02:46;3.08;;;1.80;;
10653;SDS011;5375;51.250;6.776;2023-08-30T00:05:13;2.38;;;1.90;;
10653;SDS011;5375;51.250;6.776;2023-08-30T00:07:39;3.45;;;1.65;;
10653;SDS011;5375;51.250;6.776;2023-08-30T00:10:08;2.33;;;1.80;;
10653;SDS011;5375;51.250;6.776;2023-08-30T00:12:35;3.53;;;2.10;;
10653;SDS011;5375;51.250;6.776;2023-08-30T00:15:02;3.47;;;2.20;;
10653;SDS011;5375;51.250;6.776;2023-08-30T00:17:28;2.13;;;1.75;;
10653;SDS011;5375;51.250;6.776;2023-08-30T00:19:54;2.20;;;1.90;;
10653;SDS011;5375;51.250;6.776;2023-08-30T00:22:21;2.67;;;1.77;;
10653;SDS011;5375;51.250;6.776;2023-08-30T00:24:47;3.72;;;2.25;;
10653;SDS011;5375;51.250;6.776;2023-08-30T00:27:13;3.63;;;1.73;;
10653;SDS011;5375;51.250;6.776;2023-08-30T00:29:39;2.40;;;1.80;;
10653;SDS011;5375;51.250;6.776;2023-08-30T00:32:05;2.33;;;2.00;;
10653;SDS011;5375;51.250;6.776;2023-08-30T00:34:31;2.13;;;1.77;;
10653;SDS011;5375;51.250;6.776;2023-08-30T00:36:57;2.63;;;1.88;;
10653;SDS011;5375;51.250;6.776;2023-08-30T00:39:23;1.92;;;1.70;;
10653;SDS011;5375;51.250;6.776;2023-08-30T00:41:49;2.28;;;1.67;;
10653;SDS011;5375;51.250;6.776;2023-08-30T00:44:15;2.75;;;1.80;;
10653;SDS011;5375;51.250;6.776;2023-08-30T00:46:41;2.15;;;1.83;;
10653;SDS011;5375;51.250;6.776;2023-08-30T00:49:07;2.00;;;1.80;;
10653;SDS011;5375;51.250;6.776;2023-08-30T00:51:33;2.60;;;2.08;;
10653;SDS011;5375;51.250;6.776;2023-08-30T00:53:59;2.88;;;1.83;;
10653;SDS011;5375;51.250;6.776;2023-08-30T00:56:29;2.35;;;1.70;;
10653;SDS011;5375;51.250;6.776;2023-08-30T00:58:55;3.10;;;1.92;;
10653;SDS011;5375;51.250;6.776;2023-08-30T01:01:21;2.78;;;1.90;;
10653;SDS011;5375;51.250;6.776;2023-08-30T01:03:48;2.40;;;1.85;;
10653;SDS011;5375;51.250;6.776;2023-08-30T01:06:14;2.78;;;1.75;;
10653;SDS011;5375;51.250;6.776;2023-08-30T01:08:40;3.28;;;1.95;;
10653;SDS011;5375;51.250;6.776;2023-08-30T01:11:16;2.63;;;2.10;;
10653;SDS011;5375;51.250;6.776;2023-08-30T01:13:47;2.65;;;1.90;;
10653;SDS011;5375;51.250;6.776;2023-08-30T01:16:15;2.28;;;1.85;;
10653;SDS011;5375;51.250;6.776;2023-08-30T01:18:45;2.35;;;1.88;;
10653;SDS011;5375;51.250;6.776;2023-08-30T01:21:12;1.63;;;1.50;;
10653;SDS011;5375;51.250;6.776;2023-08-30T01:26:20;1.88;;;1.63;;
10653;SDS011;5375;51.250;6.776;2023-08-30T01:28:48;1.98;;;1.77;;
10653;SDS011;5375;51.250;6.776;2023-08-30T01:31:15;2.50;;;2.08;;
10653;SDS011;5375;51.250;6.776;2023-08-30T01:33:42;2.88;;;2.00;;
10653;SDS011;5375;51.250;6.776;2023-08-30T01:36:08;2.55;;;1.67;;
10653;SDS011;5375;51.250;6.776;2023-08-30T01:38:34;2.15;;;1.83;;
10653;SDS011;5375;51.250;6.776;2023-08-30T01:41:01;2.13;;;1.70;;
10653;SDS011;5375;51.250;6.776;2023-08-30T01:43:27;2.22;;;1.67;;
10653;SDS011;5375;51.250;6.776;2023-08-30T01:45:54;2.80;;;1.70;;
10653;SDS011;5375;51.250;6.776;2023-08-30T01:48:24;2.97;;;2.03;;
10653;SDS011;5375;51.250;6.776;2023-08-30T01:50:50;2.50;;;2.15;;
10653;SDS011;5375;51.250;6.776;2023-08-30T01:53:16;2.58;;;2.08;;
10653;SDS011;5375;51.250;6.776;2023-08-30T01:55:42;2.17;;;1.80;;
10653;SDS011;5375;51.250;6.776;2023-08-30T01:58:09;2.83;;;1.90;;
10653;SDS011;5375;51.250;6.776;2023-08-30T02:00:35;2.33;;;1.80;;
10653;SDS011;5375;51.250;6.776;2023-08-30T02:03:11;1.98;;;1.77;;
10653;SDS011;5375;51.250;6.776;2023-08-30T02:05:39;2.67;;;1.95;;
10653;SDS011;5375;51.250;6.776;2023-08-30T02:08:13;2.63;;;1.90;;
10653;SDS011;5375;51.250;6.776;2023-08-30T02:10:41;3.67;;;2.00;;
10653;SDS011;5375;51.250;6.776;2023-08-30T02:13:08;3.53;;;2.28;;
10653;SDS011;5375;51.250;6.776;2023-08-30T02:15:36;3.08;;;2.17;;
10653;SDS011;5375;51.250;6.776;2023-08-30T02:18:03;3.42;;;1.98;;
10653;SDS011;5375;51.250;6.776;2023-08-30T02:20:31;2.20;;;2.00;;
10653;SDS011;5375;51.250;6.776;2023-08-30T02:23:00;2.30;;;1.73;;
10653;SDS011;5375;51.250;6.776;2023-08-30T02:25:26;2.38;;;1.80;;
10653;SDS011;5375;51.250;6.776;2023-08-30T02:27:52;2.97;;;2.35;;
10653;SDS011;5375;51.250;6.776;2023-08-30T02:30:18;4.47;;;2.20;;
10653;SDS011;5375;51.250;6.776;2023-08-30T02:32:44;3.03;;;2.05;;
10653;SDS011;5375;51.250;6.776;2023-08-30T02:35:11;3.67;;;2.10;;
10653;SDS011;5375;51.250;6.776;2023-08-30T02:37:37;5.28;;;1.80;;
10653;SDS011;5375;51.250;6.776;2023-08-30T02:40:05;3.33;;;2.03;;
10653;SDS011;5375;51.250;6.776;2023-08-30T02:42:31;3.05;;;1.75;;
10653;SDS011;5375;51.250;6.776;2023-08-30T02:44:58;2.92;;;2.13;;
10653;SDS011;5375;51.250;6.776;2023-08-30T02:47:24;2.25;;;1.70;;
10653;SDS011;5375;51.250;6.776;2023-08-30T02:49:50;2.55;;;1.90;;
10653;SDS011;5375;51.250;6.776;2023-08-30T02:52:16;2.90;;;1.95;;
10653;SDS011;5375;51.250;6.776;2023-08-30T02:54:43;3.28;;;1.95;;
10653;SDS011;5375;51.250;6.776;2023-08-30T02:57:09;1.95;;;1.70;;
10653;SDS011;5375;51.250;6.776;2023-08-30T02:59:35;2.60;;;1.90;;
10653;SDS011;5375;51.250;6.776;2023-08-30T03:02:01;2.53;;;1.90;;
10653;SDS011;5375;51.250;6.776;2023-08-30T03:04:27;2.72;;;1.63;;
10653;SDS011;5375;51.250;6.776;2023-08-30T03:06:53;2.05;;;1.73;;
10653;SDS011;5375;51.250;6.776;2023-08-30T03:09:19;3.38;;;2.08;;
10653;SDS011;5375;51.250;6.776;2023-08-30T03:11:45;4.50;;;2.22;;
10653;SDS011;5375;51.250;6.776;2023-08-30T03:14:11;3.15;;;1.90;;
10653;SDS011;5375;51.250;6.776;2023-08-30T03:16:38;2.60;;;1.98;;
10653;SDS011;5375;51.250;6.776;2023-08-30T03:19:04;2.33;;;1.92;;
10653;SDS011;5375;51.250;6.776;2023-08-30T03:21:30;1.88;;;1.75;;
10653;SDS011;5375;51.250;6.776;2023-08-30T03:23:56;2.90;;;1.90;;
10653;SDS011;5375;51.250;6.776;2023-08-30T03:26:22;2.30;;;1.52;;
10653;SDS011;5375;51.250;6.776;2023-08-30T03:28:48;2.17;;;1.70;;
10653;SDS011;5375;51.250;6.776;2023-08-30T03:31:15;3.78;;;2.30;;
10653;SDS011;5375;51.250;6.776;2023-08-30T03:33:41;2.72;;;1.80;;
10653;SDS011;5375;51.250;6.776;2023-08-30T03:36:09;3.38;;;1.80;;
10653;SDS011;5375;51.250;6.776;2023-08-30T03:38:35;5.72;;;2.00;;
10653;SDS011;5375;51.250;6.776;2023-08-30T03:41:02;4.28;;;2.00;;
10653;SDS011;5375;51.250;6.776;2023-08-30T03:43:28;13.48;;;2.33;;
10653;SDS011;5375;51.250;6.776;2023-08-30T03:45:54;4.30;;;2.20;;
10653;SDS011;5375;51.250;6.776;2023-08-30T03:48:21;2.35;;;1.90;;
10653;SDS011;5375;51.250;6.776;2023-08-30T03:50:47;3.45;;;2.10;;
10653;SDS011;5375;51.250;6.776;2023-08-30T03:53:13;2.67;;;1.90;;
10653;SDS011;5375;51.250;6.776;2023-08-30T03:55:40;4.25;;;2.00;;
10653;SDS011;5375;51.250;6.776;2023-08-30T03:58:06;4.05;;;1.95;;
10653;SDS011;5375;51.250;6.776;2023-08-30T04:00:33;2.05;;;1.85;;
10653;SDS011;5375;51.250;6.776;2023-08-30T04:03:01;2.40;;;1.85;;
10653;SDS011;5375;51.250;6.776;2023-08-30T04:05:31;2.70;;;1.92;;
10653;SDS011;5375;51.250;6.776;2023-08-30T04:07:57;7.63;;;1.90;;
10653;SDS011;5375;51.250;6.776;2023-08-30T04:10:23;1.67;;;1.58;;
10653;SDS011;5375;51.250;6.776;2023-08-30T04:12:49;5.28;;;1.70;;
10653;SDS011;5375;51.250;6.776;2023-08-30T04:15:15;2.38;;;2.00;;
10653;SDS011;5375;51.250;6.776;2023-08-30T04:17:42;2.42;;;1.80;;
10653;SDS011;5375;51.250;6.776;2023-08-30T04:20:08;4.50;;;1.80;;
10653;SDS011;5375;51.250;6.776;2023-08-30T04:22:35;2.95;;;1.90;;
10653;SDS011;5375;51.250;6.776;2023-08-30T04:25:01;2.60;;;1.90;;
10653;SDS011;5375;51.250;6.776;2023-08-30T04:27:28;2.05;;;1.85;;
10653;SDS011;5375;51.250;6.776;2023-08-30T04:29:54;2.35;;;1.92;;
10653;SDS011;5375;51.250;6.776;2023-08-30T04:32:20;3.20;;;1.90;;
10653;SDS011;5375;51.250;6.776;2023-08-30T04:34:46;2.55;;;2.10;;
10653;SDS011;5375;51.250;6.776;2023-08-30T04:37:12;2.63;;;1.92;;
10653;SDS011;5375;51.250;6.776;2023-08-30T04:39:38;3.10;;;1.90;;
10653;SDS011;5375;51.250;6.776;2023-08-30T04:42:04;3.53;;;2.00;;
10653;SDS011;5375;51.250;6.776;2023-08-30T04:44:30;2.58;;;1.65;;
10653;SDS011;5375;51.250;6.776;2023-08-30T04:46:57;2.10;;;1.60;;
10653;SDS011;5375;51.250;6.776;2023-08-30T04:49:23;2.17;;;1.70;;
10653;SDS011;5375;51.250;6.776;2023-08-30T04:51:54;2.47;;;1.83;;
10653;SDS011;5375;51.250;6.776;2023-08-30T04:54:20;3.63;;;2.00;;
10653;SDS011;5375;51.250;6.776;2023-08-30T04:56:46;3.15;;;1.95;;
10653;SDS011;5375;51.250;6.776;2023-08-30T04:59:12;3.67;;;1.95;;
10653;SDS011;5375;51.250;6.776;2023-08-30T05:01:38;8.02;;;1.90;;
10653;SDS011;5375;51.250;6.776;2023-08-30T05:04:07;4.63;;;2.10;;
10653;SDS011;5375;51.250;6.776;2023-08-30T05:06:33;3.13;;;1.88;;
10653;SDS011;5375;51.250;6.776;2023-08-30T05:08:59;6.85;;;2.08;;
10653;SDS011;5375;51.250;6.776;2023-08-30T05:11:25;2.25;;;1.75;;
10653;SDS011;5375;51.250;6.776;2023-08-30T05:13:51;3.30;;;1.83;;
10653;SDS011;5375;51.250;6.776;2023-08-30T05:16:17;3.30;;;1.92;;
10653;SDS011;5375;51.250;6.776;2023-08-30T05:18:43;3.55;;;1.63;;
10653;SDS011;5375;51.250;6.776;2023-08-30T05:21:09;3.40;;;1.70;;
10653;SDS011;5375;51.250;6.776;2023-08-30T05:23:35;2.20;;;1.50;;
10653;SDS011;5375;51.250;6.776;2023-08-30T05:26:01;2.30;;;1.90;;
10653;SDS011;5375;51.250;6.776;2023-08-30T05:28:27;5.10;;;2.13;;
10653;SDS011;5375;51.250;6.776;2023-08-30T05:30:53;3.72;;;1.80;;
10653;SDS011;5375;51.250;6.776;2023-08-30T05:33:19;2.00;;;1.77;;
10653;SDS011;5375;51.250;6.776;2023-08-30T05:35:45;2.45;;;1.60;;
10653;SDS011;5375;51.250;6.776;2023-08-30T05:38:11;2.33;;;1.95;;
10653;SDS011;5375;51.250;6.776;2023-08-30T05:40:37;1.70;;;1.60;;
10653;SDS011;5375;51.250;6.776;2023-08-30T05:43:07;2.33;;;1.83;;
10653;SDS011;5375;51.250;6.776;2023-08-30T05:45:33;3.10;;;1.70;;
10653;SDS011;5375;51.250;6.776;2023-08-30T05:47:59;2.65;;;1.70;;
10653;SDS011;5375;51.250;6.776;2023-08-30T05:50:25;2.50;;;1.85;;
10653;SDS011;5375;51.250;6.776;2023-08-30T05:52:51;2.83;;;1.70;;
10653;SDS011;5375;51.250;6.776;2023-08-30T05:55:18;2.63;;;1.70;;
10653;SDS011;5375;51.250;6.776;2023-08-30T05:57:44;2.17;;;1.90;;
10653;SDS011;5375;51.250;6.776;2023-08-30T06:00:10;3.45;;;1.80;;
10653;SDS011;5375;51.250;6.776;2023-08-30T06:02:38;3.75;;;1.55;;
10653;SDS011;5375;51.250;6.776;2023-08-30T06:05:04;2.08;;;1.88;;
10653;SDS011;5375;51.250;6.776;2023-08-30T06:07:30;1.90;;;1.80;;
10653;SDS011;5375;51.250;6.776;2023-08-30T06:09:56;6.03;;;1.95;;
10653;SDS011;5375;51.250;6.776;2023-08-30T06:12:22;1.70;;;1.60;;
10653;SDS011;5375;51.250;6.776;2023-08-30T06:14:48;2.50;;;1.90;;
10653;SDS011;5375;51.250;6.776;2023-08-30T06:17:17;2.67;;;1.67;;
10653;SDS011;5375;51.250;6.776;2023-08-30T06:19:44;2.15;;;1.60;;
10653;SDS011;5375;51.250;6.776;2023-08-30T06:22:10;2.42;;;1.70;;
10653;SDS011;5375;51.250;6.776;2023-08-30T06:24:36;2.65;;;1.50;;
10653;SDS011;5375;51.250;6.776;2023-08-30T06:27:02;2.13;;;1.60;;
10653;SDS011;5375;51.250;6.776;2023-08-30T06:29:28;4.47;;;1.67;;
10653;SDS011;5375;51.250;6.776;2023-08-30T06:31:54;1.90;;;1.60;;
10653;SDS011;5375;51.250;6.776;2023-08-30T06:34:20;3.00;;;1.63;;
10653;SDS011;5375;51.250;6.776;2023-08-30T06:36:46;1.90;;;1.58;;
10653;SDS011;5375;51.250;6.776;2023-08-30T06:39:13;1.92;;;1.75;;
10653;SDS011;5375;51.250;6.776;2023-08-30T06:41:39;2.92;;;1.70;;
10653;SDS011;5375;51.250;6.776;2023-08-30T06:44:05;3.85;;;1.70;;
10653;SDS011;5375;51.250;6.776;2023-08-30T06:46:31;2.38;;;1.70;;
10653;SDS011;5375;51.250;6.776;2023-08-30T06:48:57;2.22;;;1.60;;
10653;SDS011;5375;51.250;6.776;2023-08-30T06:51:23;2.40;;;1.48;;
10653;SDS011;5375;51.250;6.776;2023-08-30T06:53:50;2.10;;;1.60;;
10653;SDS011;5375;51.250;6.776;2023-08-30T06:56:16;2.70;;;1.73;;
10653;SDS011;5375;51.250;6.776;2023-08-30T06:58:42;2.92;;;1.60;;
10653;SDS011;5375;51.250;6.776;2023-08-30T07:01:08;3.28;;;1.75;;
10653;SDS011;5375;51.250;6.776;2023-08-30T07:03:34;2.08;;;1.50;;
10653;SDS011;5375;51.250;6.776;2023-08-30T07:06:00;2.00;;;1.60;;
10653;SDS011;5375;51.250;6.776;2023-08-30T07:08:26;4.13;;;1.73;;
10653;SDS011;5375;51.250;6.776;2023-08-30T07:10:53;2.08;;;1.73;;
10653;SDS011;5375;51.250;6.776;2023-08-30T07:13:19;2.15;;;1.55;;
10653;SDS011;5375;51.250;6.776;2023-08-30T07:15:45;1.63;;;1.50;;
10653;SDS011;5375;51.250;6.776;2023-08-30T07:18:11;1.80;;;1.30;;
10653;SDS011;5375;51.250;6.776;2023-08-30T07:20:38;3.85;;;2.38;;
10653;SDS011;5375;51.250;6.776;2023-08-30T07:23:04;2.97;;;2.10;;
10653;SDS011;5375;51.250;6.776;2023-08-30T07:25:30;3.13;;;2.25;;
10653;SDS011;5375;51.250;6.776;2023-08-30T07:27:58;3.20;;;2.35;;
10653;SDS011;5375;51.250;6.776;2023-08-30T07:30:24;4.03;;;2.80;;
10653;SDS011;5375;51.250;6.776;2023-08-30T07:32:51;4.00;;;2.40;;
10653;SDS011;5375;51.250;6.776;2023-08-30T07:35:17;3.53;;;2.63;;
10653;SDS011;5375;51.250;6.776;2023-08-30T07:37:43;3.47;;;2.50;;
10653;SDS011;5375;51.250;6.776;2023-08-30T07:40:09;3.15;;;2.30;;
10653;SDS011;5375;51.250;6.776;2023-08-30T07:42:35;3.67;;;2.30;;
10653;SDS011;5375;51.250;6.776;2023-08-30T07:45:01;3.03;;;2.30;;
10653;SDS011;5375;51.250;6.776;2023-08-30T07:47:29;2.95;;;2.30;;
10653;SDS011;5375;51.250;6.776;2023-08-30T07:49:55;3.42;;;2.45;;
10653;SDS011;5375;51.250;6.776;2023-08-30T07:52:21;3.38;;;2.20;;
10653;SDS011;5375;51.250;6.776;2023-08-30T07:54:47;4.13;;;2.30;;
10653;SDS011;5375;51.250;6.776;2023-08-30T07:57:13;3.17;;;2.20;;
10653;SDS011;5375;51.250;6.776;2023-08-30T07:59:39;3.05;;;2.50;;
10653;SDS011;5375;51.250;6.776;2023-08-30T08:02:05;2.60;;;2.35;;
10653;SDS011;5375;51.250;6.776;2023-08-30T08:04:33;4.28;;;2.20;;
10653;SDS011;5375;51.250;6.776;2023-08-30T08:06:59;2.05;;;1.85;;
10653;SDS011;5375;51.250;6.776;2023-08-30T08:09:25;3.58;;;2.10;;
10653;SDS011;5375;51.250;6.776;2023-08-30T08:11:51;4.35;;;2.55;;
10653;SDS011;5375;51.250;6.776;2023-08-30T08:14:17;3.85;;;2.20;;
10653;SDS011;5375;51.250;6.776;2023-08-30T08:16:43;3.00;;;2.13;;
10653;SDS011;5375;51.250;6.776;2023-08-30T08:19:10;3.22;;;2.17;;
10653;SDS011;5375;51.250;6.776;2023-08-30T08:21:37;4.07;;;1.92;;
10653;SDS011;5375;51.250;6.776;2023-08-30T08:24:03;2.80;;;2.10;;
10653;SDS011;5375;51.250;6.776;2023-08-30T08:26:29;2.47;;;2.05;;
10653;SDS011;5375;51.250;6.776;2023-08-30T08:28:56;3.42;;;1.88;;
10653;SDS011;5375;51.250;6.776;2023-08-30T08:31:22;3.90;;;2.30;;
10653;SDS011;5375;51.250;6.776;2023-08-30T08:33:51;4.05;;;2.22;;
10653;SDS011;5375;51.250;6.776;2023-08-30T08:36:18;3.88;;;2.33;;
10653;SDS011;5375;51.250;6.776;2023-08-30T08:38:44;4.47;;;2.20;;
10653;SDS011;5375;51.250;6.776;2023-08-30T08:41:11;3.40;;;2.03;;
10653;SDS011;5375;51.250;6.776;2023-08-30T08:43:38;2.90;;;2.13;;
10653;SDS011;5375;51.250;6.776;2023-08-30T08:46:05;3.92;;;2.05;;
10653;SDS011;5375;51.250;6.776;2023-08-30T08:48:31;3.47;;;2.13;;
10653;SDS011;5375;51.250;6.776;2023-08-30T08:50:59;2.55;;;2.10;;
10653;SDS011;5375;51.250;6.776;2023-08-30T08:53:26;3.60;;;2.10;;
10653;SDS011;5375;51.250;6.776;2023-08-30T08:55:52;3.25;;;1.83;;
10653;SDS011;5375;51.250;6.776;2023-08-30T08:58:18;2.97;;;2.25;;
10653;SDS011;5375;51.250;6.776;2023-08-30T09:00:44;2.83;;;2.10;;
10653;SDS011;5375;51.250;6.776;2023-08-30T09:03:10;4.63;;;2.00;;
10653;SDS011;5375;51.250;6.776;2023-08-30T09:05:37;3.40;;;2.30;;
10653;SDS011;5375;51.250;6.776;2023-08-30T09:08:04;3.67;;;2.40;;
10653;SDS011;5375;51.250;6.776;2023-08-30T09:10:33;3.78;;;2.40;;
10653;SDS011;5375;51.250;6.776;2023-08-30T09:13:00;2.72;;;1.92;;
10653;SDS011;5375;51.250;6.776;2023-08-30T09:15:32;3.22;;;2.33;;
10653;SDS011;5375;51.250;6.776;2023-08-30T09:17:59;4.32;;;2.10;;
10653;SDS011;5375;51.250;6.776;2023-08-30T09:20:25;3.60;;;2.20;;
10653;SDS011;5375;51.250;6.776;2023-08-30T09:22:51;2.80;;;2.17;;
10653;SDS011;5375;51.250;6.776;2023-08-30T09:25:24;2.45;;;2.10;;
10653;SDS011;5375;51.250;6.776;2023-08-30T09:27:50;3.53;;;2.30;;
10653;SDS011;5375;51.250;6.776;2023-08-30T09:30:22;2.92;;;2.20;;
10653;SDS011;5375;51.250;6.776;2023-08-30T09:32:48;3.00;;;2.35;;
10653;SDS011;5375;51.250;6.776;2023-08-30T09:35:14;2.58;;;2.08;;
10653;SDS011;5375;51.250;6.776;2023-08-30T09:37:40;3.63;;;2.30;;
10653;SDS011;5375;51.250;6.776;2023-08-30T09:40:06;2.60;;;2.40;;
10653;SDS011;5375;51.250;6.776;2023-08-30T09:42:33;2.50;;;2.25;;
10653;SDS011;5375;51.250;6.776;2023-08-30T09:44:59;2.75;;;2.28;;
10653;SDS011;5375;51.250;6.776;2023-08-30T09:47:25;3.88;;;2.30;;
10653;SDS011;5375;51.250;6.776;2023-08-30T09:49:55;2.70;;;2.25;;
10653;SDS011;5375;51.250;6.776;2023-08-30T09:52:23;2.72;;;2.20;;
10653;SDS011;5375;51.250;6.776;2023-08-30T09:54:49;2.83;;;2.28;;
10653;SDS011;5375;51.250;6.776;2023-08-30T09:57:15;4.22;;;2.30;;
10653;SDS011;5375;51.250;6.776;2023-08-30T09:59:42;2.85;;;2.10;;
10653;SDS011;5375;51.250;6.776;2023-08-30T10:02:08;2.53;;;1.98;;
10653;SDS011;5375;51.250;6.776;2023-08-30T10:04:35;2.95;;;2.10;;
10653;SDS011;5375;51.250;6.776;2023-08-30T10:07:04;2.35;;;1.80;;
10653;SDS011;5375;51.250;6.776;2023-08-30T10:09:32;2.60;;;1.98;;
10653;SDS011;5375;51.250;6.776;2023-08-30T10:11:58;3.88;;;1.88;;
10653;SDS011;5375;51.250;6.776;2023-08-30T10:14:26;3.17;;;1.80;;
10653;SDS011;5375;51.250;6.776;2023-08-30T10:17:01;2.45;;;1.65;;
10653;SDS011;5375;51.250;6.776;2023-08-30T10:19:28;3.15;;;1.58;;
10653;SDS011;5375;51.250;6.776;2023-08-30T10:24:23;1.70;;;1.60;;
10653;SDS011;5375;51.250;6.776;2023-08-30T10:26:49;3.15;;;1.75;;
10653;SDS011;5375;51.250;6.776;2023-08-30T10:29:16;2.45;;;1.65;;
10653;SDS011;5375;51.250;6.776;2023-08-30T10:31:43;2.65;;;1.50;;
10653;SDS011;5375;51.250;6.776;2023-08-30T10:34:16;2.50;;;1.85;;
10653;SDS011;5375;51.250;6.776;2023-08-30T10:36:42;2.97;;;1.58;;
10653;SDS011;5375;51.250;6.776;2023-08-30T10:39:12;2.28;;;1.70;;
10653;SDS011;5375;51.250;6.776;2023-08-30T10:41:53;3.60;;;1.83;;
10653;SDS011;5375;51.250;6.776;2023-08-30T10:44:20;2.10;;;1.90;;
10653;SDS011;5375;51.250;6.776;2023-08-30T10:46:51;1.92;;;1.63;;
10653;SDS011;5375;51.250;6.776;2023-08-30T10:49:18;2.25;;;1.75;;
10653;SDS011;5375;51.250;6.776;2023-08-30T10:51:44;2.45;;;1.60;;
10653;SDS011;5375;51.250;6.776;2023-08-30T10:54:12;2.30;;;1.50;;
10653;SDS011;5375;51.250;6.776;2023-08-30T10:59:20;2.90;;;1.38;;
10653;SDS011;5375;51.250;6.776;2023-08-30T11:01:49;1.90;;;1.48;;
10653;SDS011;5375;51.250;6.776;2023-08-30T11:04:19;1.80;;;1.48;;
10653;SDS011;5375;51.250;6.776;2023-08-30T11:06:47;2.33;;;1.65;;
10653;SDS011;5375;51.250;6.776;2023-08-30T11:09:14;1.63;;;1.35;;
10653;SDS011;5375;51.250;6.776;2023-08-30T11:11:43;1.50;;;1.40;;
10653;SDS011;5375;51.250;6.776;2023-08-30T11:14:09;2.03;;;1.70;;
10653;SDS011;5375;51.250;6.776;2023-08-30T11:16:35;1.60;;;1.50;;
10653;SDS011;5375;51.250;6.776;2023-08-30T11:19:02;1.58;;;1.42;;
10653;SDS011;5375;51.250;6.776;2023-08-30T11:21:32;2.05;;;1.52;;
10653;SDS011;5375;51.250;6.776;2023-08-30T11:23:58;1.73;;;1.42;;
10653;SDS011;5375;51.250;6.776;2023-08-30T11:26:24;2.17;;;1.65;;
10653;SDS011;5375;51.250;6.776;2023-08-30T11:28:51;1.55;;;1.45;;
10653;SDS011;5375;51.250;6.776;2023-08-30T11:31:24;1.90;;;1.55;;
10653;SDS011;5375;51.250;6.776;2023-08-30T11:33:54;1.83;;;1.42;;
10653;SDS011;5375;51.250;6.776;2023-08-30T11:36:22;2.95;;;1.80;;
10653;SDS011;5375;51.250;6.776;2023-08-30T11:38:54;1.92;;;1.42;;
10653;SDS011;5375;51.250;6.776;2023-08-30T11:41:21;1.60;;;1.50;;
10653;SDS011;5375;51.250;6.776;2023-08-30T11:43:47;2.22;;;1.90;;
10653;SDS011;5375;51.250;6.776;2023-08-30T11:46:14;1.60;;;1.30;;
10653;SDS011;5375;51.250;6.776;2023-08-30T11:48:40;1.65;;;1.40;;
10653;SDS011;5375;51.250;6.776;2023-08-30T11:51:07;1.85;;;1.23;;
10653;SDS011;5375;51.250;6.776;2023-08-30T11:53:33;1.85;;;1.40;;
10653;SDS011;5375;51.250;6.776;2023-08-30T11:56:00;1.63;;;1.20;;
10653;SDS011;5375;51.250;6.776;2023-08-30T11:58:26;1.55;;;1.20;;
10653;SDS011;5375;51.250;6.776;2023-08-30T12:00:52;3.10;;;1.40;;
10653;SDS011;5375;51.250;6.776;2023-08-30T12:03:19;1.30;;;1.20;;
10653;SDS011;5375;51.250;6.776;2023-08-30T12:05:46;2.20;;;1.55;;
10653;SDS011;5375;51.250;6.776;2023-08-30T12:10:45;1.40;;;1.27;;
10653;SDS011;5375;51.250;6.776;2023-08-30T12:15:46;1.55;;;1.45;;
10653;SDS011;5375;51.250;6.776;2023-08-30T12:18:12;2.03;;;1.58;;
10653;SDS011;5375;51.250;6.776;2023-08-30T12:20:38;1.48;;;1.38;;
10653;SDS011;5375;51.250;6.776;2023-08-30T12:23:04;1.95;;;1.40;;
10653;SDS011;5375;51.250;6.776;2023-08-30T12:25:30;1.40;;;1.30;;
10653;SDS011;5375;51.250;6.776;2023-08-30T12:27:58;2.63;;;1.45;;
10653;SDS011;5375;51.250;6.776;2023-08-30T12:30:24;1.60;;;1.30;;
10653;SDS011;5375;51.250;6.776;2023-08-30T12:32:59;2.10;;;1.50;;
10653;SDS011;5375;51.250;6.776;2023-08-30T12:35:27;1.40;;;1.30;;
10653;SDS011;5375;51.250;6.776;2023-08-30T12:37:53;1.42;;;1.20;;
10653;SDS011;5375;51.250;6.776;2023-08-30T12:40:20;1.40;;;1.30;;
10653;SDS011;5375;51.250;6.776;2023-08-30T12:42:46;1.67;;;1.38;;
10653;SDS011;5375;51.250;6.776;2023-08-30T12:45:12;1.65;;;1.48;;
10653;SDS011;5375;51.250;6.776;2023-08-30T12:47:38;1.83;;;1.45;;
10653;SDS011;5375;51.250;6.776;2023-08-30T12:50:05;1.50;;;1.38;;
10653;SDS011;5375;51.250;6.776;2023-08-30T12:52:31;1.30;;;1.20;;
10653;SDS011;5375;51.250;6.776;2023-08-30T12:54:57;1.65;;;1.30;;
10653;SDS011;5375;51.250;6.776;2023-08-30T12:57:23;1.60;;;1.30;;
10653;SDS011;5375;51.250;6.776;2023-08-30T12:59:49;2.00;;;1.30;;
10653;SDS011;5375;51.250;6.776;2023-08-30T13:02:15;1.52;;;1.35;;
10653;SDS011;5375;51.250;6.776;2023-08-30T13:04:41;1.67;;;1.30;;
10653;SDS011;5375;51.250;6.776;2023-08-30T13:07:07;1.88;;;1.33;;
10653;SDS011;5375;51.250;6.776;2023-08-30T13:09:33;1.77;;;1.20;;
10653;SDS011;5375;51.250;6.776;2023-08-30T13:11:59;2.13;;;1.20;;
10653;SDS011;5375;51.250;6.776;2023-08-30T13:14:25;2.05;;;1.38;;
10653;SDS011;5375;51.250;6.776;2023-08-30T13:16:51;1.70;;;1.33;;
10653;SDS011;5375;51.250;6.776;2023-08-30T13:19:17;2.33;;;1.20;;
10653;SDS011;5375;51.250;6.776;2023-08-30T13:21:43;2.05;;;1.30;;
10653;SDS011;5375;51.250;6.776;2023-08-30T13:24:09;2.75;;;1.40;;
10653;SDS011;5375;51.250;6.776;2023-08-30T13:26:35;2.75;;;1.30;;
10653;SDS011;5375;51.250;6.776;2023-08-30T13:29:01;2.60;;;1.55;;
10653;SDS011;5375;51.250;6.776;2023-08-30T13:31:27;1.42;;;1.02;;
10653;SDS011;5375;51.250;6.776;2023-08-30T13:33:53;1.40;;;1.10;;
10653;SDS011;5375;51.250;6.776;2023-08-30T13:36:20;1.42;;;1.15;;
10653;SDS011;5375;51.250;6.776;2023-08-30T13:38:45;1.40;;;1.27;;
10653;SDS011;5375;51.250;6.776;2023-08-30T13:41:12;1.30;;;1.20;;
10653;SDS011;5375;51.250;6.776;2023-08-30T13:43:38;1.58;;;1.40;;
10653;SDS011;5375;51.250;6.776;2023-08-30T13:46:04;2.80;;;1.40;;
10653;SDS011;5375;51.250;6.776;2023-08-30T13:48:30;1.40;;;1.30;;
10653;SDS011;5375;51.250;6.776;2023-08-30T13:50:56;1.63;;;1.30;;
10653;SDS011;5375;51.250;6.776;2023-08-30T13:53:22;2.55;;;1.35;;
10653;SDS011;5375;51.250;6.776;2023-08-30T13:55:49;1.33;;;1.20;;
10653;SDS011;5375;51.250;6.776;2023-08-30T13:58:15;4.45;;;1.27;;
10653;SDS011;5375;51.250;6.776;2023-08-30T14:00:42;1.60;;;1.10;;
10653;SDS011;5375;51.250;6.776;2023-08-30T14:03:08;2.25;;;1.52;;
10653;SDS011;5375;51.250;6.776;2023-08-30T14:05:34;1.67;;;1.50;;
10653;SDS011;5375;51.250;6.776;2023-08-30T14:08:00;3.40;;;1.33;;
10653;SDS011;5375;51.250;6.776;2023-08-30T14:10:26;2.20;;;1.40;;
10653;SDS011;5375;51.250;6.776;2023-08-30T14:12:53;1.98;;;1.33;;
10653;SDS011;5375;51.250;6.776;2023-08-30T14:15:19;2.17;;;1.40;;
10653;SDS011;5375;51.250;6.776;2023-08-30T14:17:45;2.72;;;1.42;;
10653;SDS011;5375;51.250;6.776;2023-08-30T14:20:11;2.28;;;1.40;;
10653;SDS011;5375;51.250;6.776;2023-08-30T14:22:38;2.28;;;1.30;;
10653;SDS011;5375;51.250;6.776;2023-08-30T14:25:04;2.53;;;1.33;;
10653;SDS011;5375;51.250;6.776;2023-08-30T14:27:30;1.55;;;1.20;;
10653;SDS011;5375;51.250;6.776;2023-08-30T14:29:56;2.63;;;1.00;;
10653;SDS011;5375;51.250;6.776;2023-08-30T14:32:22;2.22;;;1.60;;
10653;SDS011;5375;51.250;6.776;2023-08-30T14:34:48;1.65;;;1.40;;
10653;SDS011;5375;51.250;6.776;2023-08-30T14:37:14;1.90;;;1.40;;
10653;SDS011;5375;51.250;6.776;2023-08-30T14:39:40;2.03;;;1.25;;
10653;SDS011;5375;51.250;6.776;2023-08-30T14:42:06;1.30;;;1.20;;
10653;SDS011;5375;51.250;6.776;2023-08-30T14:44:32;1.65;;;1.02;;
10653;SDS011;5375;51.250;6.776;2023-08-30T14:46:58;2.22;;;1.30;;
10653;SDS011;5375;51.250;6.776;2023-08-30T14:49:24;2.80;;;1.35;;
10653;SDS011;5375;51.250;6.776;2023-08-30T14:51:50;1.60;;;1.10;;
10653;SDS011;5375;51.250;6.776;2023-08-30T14:54:16;3.05;;;1.40;;
10653;SDS011;5375;51.250;6.776;2023-08-30T14:56:42;1.50;;;1.20;;
10653;SDS011;5375;51.250;6.776;2023-08-30T14:59:09;1.77;;;1.33;;
10653;SDS011;5375;51.250;6.776;2023-08-30T15:01:35;1.58;;;1.20;;
10653;SDS011;5375;51.250;6.776;2023-08-30T15:04:01;1.75;;;1.20;;
10653;SDS011;5375;51.250;6.776;2023-08-30T15:06:27;1.60;;;1.27;;
10653;SDS011;5375;51.250;6.776;2023-08-30T15:08:53;1.83;;;1.20;;